sensor_id;sensor_type;location;lat;lon;timestamp;pressure;altitude;pressure_sealevel;temperature;humidity
48029;BME280;33808;37.368;127.108;2023-03-19T00:01:22;101317.41;;;6.62;nan
48029;BME280;33808;37.368;127.108;2023-03-19T00:03:52;101311.00;;;7.10;nan
48029;BME280;33808;37.368;127.108;2023-03-19T00:06:22;101338.66;;;7.16;nan
48029;BME280;33808;37.368;127.108;2023-03-19T00:08:53;101330.22;;;6.85;nan
48029;BME280;33808;37.368;127.108;2023-03-19T00:11:23;101341.63;;;6.68;nan
48029;BME280;33808;37.368;127.108;2023-03-19T00:13:53;101324.16;;;6.87;nan
48029;BME280;33808;37.368;127.108;2023-03-19T00:16:22;101335.53;;;6.69;nan
48029;BME280;33808;37.368;127.108;2023-03-19T00:21:21;101330.84;;;7.19;nan
48029;BME280;33808;37.368;127.108;2023-03-19T00:23:52;101354.88;;;7.49;nan
48029;BME280;33808;37.368;127.108;2023-03-19T00:26:22;101336.72;;;7.41;nan
48029;BME280;33808;37.368;127.108;2023-03-19T00:28:52;101362.88;;;7.26;nan
48029;BME280;33808;37.368;127.108;2023-03-19T00:31:21;101359.50;;;7.14;nan
48029;BME280;33808;37.368;127.108;2023-03-19T00:33:51;101341.94;;;7.38;nan
48029;BME280;33808;37.368;127.108;2023-03-19T00:36:21;101355.78;;;7.43;nan
48029;BME280;33808;37.368;127.108;2023-03-19T00:43:54;101446.50;;;7.79;nan
48029;BME280;33808;37.368;127.108;2023-03-19T00:46:25;101352.75;;;7.86;nan
48029;BME280;33808;37.368;127.108;2023-03-19T00:48:55;101368.44;;;7.79;nan
48029;BME280;33808;37.368;127.108;2023-03-19T00:51:26;101370.09;;;7.89;nan
48029;BME280;33808;37.368;127.108;2023-03-19T00:53:56;101369.72;;;8.20;nan
48029;BME280;33808;37.368;127.108;2023-03-19T00:56:25;101375.03;;;8.13;nan
48029;BME280;33808;37.368;127.108;2023-03-19T01:01:25;101367.91;;;8.28;nan
48029;BME280;33808;37.368;127.108;2023-03-19T01:03:54;101354.09;;;8.23;nan
48029;BME280;33808;37.368;127.108;2023-03-19T01:06:24;101362.16;;;8.74;nan
48029;BME280;33808;37.368;127.108;2023-03-19T01:08:54;101378.13;;;8.46;nan
48029;BME280;33808;37.368;127.108;2023-03-19T01:11:24;101377.59;;;8.86;nan
48029;BME280;33808;37.368;127.108;2023-03-19T01:13:54;101343.75;;;8.85;nan
48029;BME280;33808;37.368;127.108;2023-03-19T01:16:24;101351.38;;;8.96;nan
48029;BME280;33808;37.368;127.108;2023-03-19T01:18:54;101332.81;;;8.60;nan
48029;BME280;33808;37.368;127.108;2023-03-19T01:21:23;101356.81;;;8.83;nan
48029;BME280;33808;37.368;127.108;2023-03-19T01:23:53;101349.69;;;8.95;nan
48029;BME280;33808;37.368;127.108;2023-03-19T01:26:23;101398.91;;;9.15;nan
48029;BME280;33808;37.368;127.108;2023-03-19T01:28:54;101356.31;;;9.14;nan
48029;BME280;33808;37.368;127.108;2023-03-19T01:31:23;101348.28;;;9.28;nan
48029;BME280;33808;37.368;127.108;2023-03-19T01:33:53;101344.63;;;9.38;nan
48029;BME280;33808;37.368;127.108;2023-03-19T01:36:23;101338.38;;;9.47;nan
48029;BME280;33808;37.368;127.108;2023-03-19T01:38:53;101335.75;;;9.48;nan
48029;BME280;33808;37.368;127.108;2023-03-19T01:43:53;101355.16;;;9.82;nan
48029;BME280;33808;37.368;127.108;2023-03-19T01:46:32;101356.25;;;9.70;nan
48029;BME280;33808;37.368;127.108;2023-03-19T01:49:06;101403.88;;;9.83;nan
48029;BME280;33808;37.368;127.108;2023-03-19T01:51:40;101359.06;;;10.06;nan
48029;BME280;33808;37.368;127.108;2023-03-19T01:54:13;101359.22;;;9.97;nan
48029;BME280;33808;37.368;127.108;2023-03-19T01:56:46;101357.03;;;10.20;nan
48029;BME280;33808;37.368;127.108;2023-03-19T01:59:46;101357.28;;;10.06;nan
48029;BME280;33808;37.368;127.108;2023-03-19T02:05:05;101343.78;;;10.31;nan
48029;BME280;33808;37.368;127.108;2023-03-19T02:07:37;101319.78;;;10.54;nan
48029;BME280;33808;37.368;127.108;2023-03-19T02:10:10;101346.94;;;10.45;nan
48029;BME280;33808;37.368;127.108;2023-03-19T02:12:41;101333.66;;;10.56;nan
48029;BME280;33808;37.368;127.108;2023-03-19T02:15:11;101342.84;;;10.74;nan
48029;BME280;33808;37.368;127.108;2023-03-19T02:17:41;101353.56;;;10.62;nan
48029;BME280;33808;37.368;127.108;2023-03-19T02:23:16;101336.06;;;10.66;nan
48029;BME280;33808;37.368;127.108;2023-03-19T02:26:09;101301.41;;;10.59;nan
48029;BME280;33808;37.368;127.108;2023-03-19T02:28:42;101332.69;;;10.60;nan
48029;BME280;33808;37.368;127.108;2023-03-19T02:31:13;101336.44;;;10.88;nan
48029;BME280;33808;37.368;127.108;2023-03-19T02:33:55;101330.75;;;10.70;nan
48029;BME280;33808;37.368;127.108;2023-03-19T02:36:28;101328.34;;;10.98;nan
48029;BME280;33808;37.368;127.108;2023-03-19T02:39:02;101326.00;;;11.24;nan
48029;BME280;33808;37.368;127.108;2023-03-19T02:41:33;101326.00;;;11.24;nan
48029;BME280;33808;37.368;127.108;2023-03-19T02:44:07;101364.91;;;11.72;nan
48029;BME280;33808;37.368;127.108;2023-03-19T02:46:38;101326.94;;;11.55;nan
48029;BME280;33808;37.368;127.108;2023-03-19T02:49:08;101317.06;;;11.65;nan
48029;BME280;33808;37.368;127.108;2023-03-19T02:51:38;101308.13;;;11.39;nan
48029;BME280;33808;37.368;127.108;2023-03-19T02:54:09;101313.28;;;11.44;nan
48029;BME280;33808;37.368;127.108;2023-03-19T02:56:39;101310.47;;;11.83;nan
48029;BME280;33808;37.368;127.108;2023-03-19T02:59:09;101312.25;;;11.50;nan
48029;BME280;33808;37.368;127.108;2023-03-19T03:01:38;101275.19;;;11.65;nan
48029;BME280;33808;37.368;127.108;2023-03-19T03:04:08;101300.78;;;11.54;nan
48029;BME280;33808;37.368;127.108;2023-03-19T03:06:38;101289.63;;;11.47;nan
48029;BME280;33808;37.368;127.108;2023-03-19T03:09:09;101290.88;;;11.65;nan
48029;BME280;33808;37.368;127.108;2023-03-19T03:11:40;101285.81;;;11.92;nan
48029;BME280;33808;37.368;127.108;2023-03-19T03:14:10;101290.88;;;12.28;nan
48029;BME280;33808;37.368;127.108;2023-03-19T03:16:40;101276.78;;;11.71;nan
48029;BME280;33808;37.368;127.108;2023-03-19T03:19:10;101270.16;;;11.90;nan
48029;BME280;33808;37.368;127.108;2023-03-19T03:21:40;101254.34;;;11.93;nan
48029;BME280;33808;37.368;127.108;2023-03-19T03:24:10;101249.69;;;12.33;nan
48029;BME280;33808;37.368;127.108;2023-03-19T03:31:38;101246.66;;;12.73;nan
48029;BME280;33808;37.368;127.108;2023-03-19T03:34:08;101238.69;;;12.22;nan
48029;BME280;33808;37.368;127.108;2023-03-19T03:39:07;101229.84;;;12.52;nan
48029;BME280;33808;37.368;127.108;2023-03-19T03:41:37;101232.06;;;12.91;nan
48029;BME280;33808;37.368;127.108;2023-03-19T03:44:06;101233.75;;;13.19;nan
48029;BME280;33808;37.368;127.108;2023-03-19T03:49:05;101192.09;;;13.10;nan
48029;BME280;33808;37.368;127.108;2023-03-19T03:51:35;101226.78;;;12.93;nan
48029;BME280;33808;37.368;127.108;2023-03-19T03:54:05;101214.06;;;13.07;nan
48029;BME280;33808;37.368;127.108;2023-03-19T03:56:35;101209.78;;;12.51;nan
48029;BME280;33808;37.368;127.108;2023-03-19T03:59:05;101198.41;;;12.79;nan
48029;BME280;33808;37.368;127.108;2023-03-19T04:01:35;101190.16;;;12.90;nan
48029;BME280;33808;37.368;127.108;2023-03-19T04:04:05;101148.53;;;12.54;nan
48029;BME280;33808;37.368;127.108;2023-03-19T04:06:34;101181.75;;;12.80;nan
48029;BME280;33808;37.368;127.108;2023-03-19T04:09:04;101179.41;;;12.98;nan
48029;BME280;33808;37.368;127.108;2023-03-19T04:11:36;101163.09;;;13.14;nan
48029;BME280;33808;37.368;127.108;2023-03-19T04:14:06;101157.69;;;13.18;nan
48029;BME280;33808;37.368;127.108;2023-03-19T04:16:36;101161.59;;;13.07;nan
48029;BME280;33808;37.368;127.108;2023-03-19T04:19:06;101164.22;;;12.81;nan
48029;BME280;33808;37.368;127.108;2023-03-19T04:21:35;101157.69;;;12.94;nan
48029;BME280;33808;37.368;127.108;2023-03-19T04:24:05;101143.38;;;12.77;nan
48029;BME280;33808;37.368;127.108;2023-03-19T04:26:36;101134.28;;;12.88;nan
48029;BME280;33808;37.368;127.108;2023-03-19T04:29:06;101144.28;;;12.76;nan
48029;BME280;33808;37.368;127.108;2023-03-19T04:34:06;101136.66;;;12.95;nan
48029;BME280;33808;37.368;127.108;2023-03-19T04:36:35;101110.72;;;12.61;nan
48029;BME280;33808;37.368;127.108;2023-03-19T04:39:05;101121.88;;;12.68;nan
48029;BME280;33808;37.368;127.108;2023-03-19T04:41:35;101112.72;;;12.80;nan
48029;BME280;33808;37.368;127.108;2023-03-19T04:44:05;101107.28;;;12.84;nan
48029;BME280;33808;37.368;127.108;2023-03-19T04:46:35;101100.25;;;12.86;nan
48029;BME280;33808;37.368;127.108;2023-03-19T04:49:05;101089.94;;;13.05;nan
48029;BME280;33808;37.368;127.108;2023-03-19T04:51:35;101099.94;;;12.95;nan
48029;BME280;33808;37.368;127.108;2023-03-19T04:56:33;101101.75;;;12.68;nan
48029;BME280;33808;37.368;127.108;2023-03-19T04:59:03;101089.00;;;12.83;nan
48029;BME280;33808;37.368;127.108;2023-03-19T05:01:33;101091.41;;;12.89;nan
48029;BME280;33808;37.368;127.108;2023-03-19T05:04:03;101090.44;;;12.91;nan
48029;BME280;33808;37.368;127.108;2023-03-19T05:06:33;101090.59;;;12.87;nan
48029;BME280;33808;37.368;127.108;2023-03-19T05:11:32;101083.31;;;13.44;nan
48029;BME280;33808;37.368;127.108;2023-03-19T05:14:02;101082.88;;;13.54;nan
48029;BME280;33808;37.368;127.108;2023-03-19T05:16:32;101080.59;;;13.45;nan
48029;BME280;33808;37.368;127.108;2023-03-19T05:19:03;101073.81;;;13.40;nan
48029;BME280;33808;37.368;127.108;2023-03-19T05:24:02;101046.88;;;13.11;nan
48029;BME280;33808;37.368;127.108;2023-03-19T05:26:32;101065.00;;;12.93;nan
48029;BME280;33808;37.368;127.108;2023-03-19T05:29:02;101060.91;;;13.10;nan
48029;BME280;33808;37.368;127.108;2023-03-19T05:31:32;101052.88;;;13.14;nan
48029;BME280;33808;37.368;127.108;2023-03-19T05:34:02;101061.50;;;12.69;nan
48029;BME280;33808;37.368;127.108;2023-03-19T05:36:32;101048.50;;;12.90;nan
48029;BME280;33808;37.368;127.108;2023-03-19T05:46:29;101054.28;;;13.47;nan
48029;BME280;33808;37.368;127.108;2023-03-19T05:48:59;101042.41;;;13.38;nan
48029;BME280;33808;37.368;127.108;2023-03-19T05:51:30;101044.81;;;13.19;nan
48029;BME280;33808;37.368;127.108;2023-03-19T05:56:29;101056.78;;;12.79;nan
48029;BME280;33808;37.368;127.108;2023-03-19T05:58:59;101038.06;;;12.65;nan
48029;BME280;33808;37.368;127.108;2023-03-19T06:01:29;100997.88;;;12.88;nan
48029;BME280;33808;37.368;127.108;2023-03-19T06:03:59;101034.91;;;13.04;nan
48029;BME280;33808;37.368;127.108;2023-03-19T06:06:32;101039.47;;;13.22;nan
48029;BME280;33808;37.368;127.108;2023-03-19T06:11:31;101018.59;;;13.19;nan
48029;BME280;33808;37.368;127.108;2023-03-19T06:14:01;101029.38;;;13.35;nan
48029;BME280;33808;37.368;127.108;2023-03-19T06:16:31;101036.47;;;13.33;nan
48029;BME280;33808;37.368;127.108;2023-03-19T06:19:01;101021.41;;;12.91;nan
48029;BME280;33808;37.368;127.108;2023-03-19T06:21:30;101025.16;;;12.84;nan
48029;BME280;33808;37.368;127.108;2023-03-19T06:24:00;101015.44;;;12.86;nan
48029;BME280;33808;37.368;127.108;2023-03-19T06:26:30;101016.34;;;12.86;nan
48029;BME280;33808;37.368;127.108;2023-03-19T06:29:00;100986.16;;;12.74;nan
48029;BME280;33808;37.368;127.108;2023-03-19T06:31:29;101011.25;;;13.05;nan
48029;BME280;33808;37.368;127.108;2023-03-19T06:33:59;100986.50;;;13.12;nan
48029;BME280;33808;37.368;127.108;2023-03-19T06:36:29;101024.81;;;13.17;nan
48029;BME280;33808;37.368;127.108;2023-03-19T06:38:59;101025.41;;;13.01;nan
48029;BME280;33808;37.368;127.108;2023-03-19T06:41:29;101020.81;;;13.06;nan
48029;BME280;33808;37.368;127.108;2023-03-19T06:43:59;101024.81;;;12.93;nan
48029;BME280;33808;37.368;127.108;2023-03-19T06:46:29;101019.66;;;12.90;nan
48029;BME280;33808;37.368;127.108;2023-03-19T06:48:59;101019.63;;;12.91;nan
48029;BME280;33808;37.368;127.108;2023-03-19T06:51:29;101026.69;;;12.89;nan
48029;BME280;33808;37.368;127.108;2023-03-19T06:53:58;101024.44;;;12.79;nan
48029;BME280;33808;37.368;127.108;2023-03-19T06:56:28;101016.41;;;12.60;nan
48029;BME280;33808;37.368;127.108;2023-03-19T06:58:58;101020.75;;;12.61;nan
48029;BME280;33808;37.368;127.108;2023-03-19T07:01:28;101022.97;;;12.71;nan
48029;BME280;33808;37.368;127.108;2023-03-19T07:03:58;101016.44;;;12.58;nan
48029;BME280;33808;37.368;127.108;2023-03-19T07:06:28;101012.13;;;12.81;nan
48029;BME280;33808;37.368;127.108;2023-03-19T07:08:58;101027.09;;;13.02;nan
48029;BME280;33808;37.368;127.108;2023-03-19T07:11:27;101006.00;;;12.82;nan
48029;BME280;33808;37.368;127.108;2023-03-19T07:16:27;101001.09;;;12.72;nan
48029;BME280;33808;37.368;127.108;2023-03-19T07:18:57;101013.28;;;12.97;nan
48029;BME280;33808;37.368;127.108;2023-03-19T07:21:26;100996.13;;;13.12;nan
48029;BME280;33808;37.368;127.108;2023-03-19T07:23:56;100999.59;;;13.36;nan
48029;BME280;33808;37.368;127.108;2023-03-19T07:26:26;100987.09;;;13.19;nan
48029;BME280;33808;37.368;127.108;2023-03-19T07:28:56;100985.53;;;12.91;nan
48029;BME280;33808;37.368;127.108;2023-03-19T07:31:26;100982.56;;;13.01;nan
48029;BME280;33808;37.368;127.108;2023-03-19T07:33:55;100985.41;;;13.18;nan
48029;BME280;33808;37.368;127.108;2023-03-19T07:36:25;100980.56;;;12.84;nan
48029;BME280;33808;37.368;127.108;2023-03-19T07:38:55;100936.38;;;12.73;nan
48029;BME280;33808;37.368;127.108;2023-03-19T07:41:25;100934.75;;;12.70;nan
48029;BME280;33808;37.368;127.108;2023-03-19T07:43:55;100969.22;;;12.83;nan
48029;BME280;33808;37.368;127.108;2023-03-19T07:48:54;100948.88;;;13.12;nan
48029;BME280;33808;37.368;127.108;2023-03-19T07:53:53;100958.84;;;13.04;nan
48029;BME280;33808;37.368;127.108;2023-03-19T07:56:22;100958.19;;;13.21;nan
48029;BME280;33808;37.368;127.108;2023-03-19T08:01:21;100958.41;;;12.92;nan
48029;BME280;33808;37.368;127.108;2023-03-19T08:03:51;100964.09;;;12.80;nan
48029;BME280;33808;37.368;127.108;2023-03-19T08:06:21;100947.13;;;12.67;nan
48029;BME280;33808;37.368;127.108;2023-03-19T08:08:51;100960.38;;;12.62;nan
48029;BME280;33808;37.368;127.108;2023-03-19T08:11:21;100960.78;;;12.75;nan
48029;BME280;33808;37.368;127.108;2023-03-19T08:13:51;100958.16;;;12.75;nan
48029;BME280;33808;37.368;127.108;2023-03-19T08:16:20;100965.06;;;12.77;nan
48029;BME280;33808;37.368;127.108;2023-03-19T08:18:50;100971.44;;;12.94;nan
48029;BME280;33808;37.368;127.108;2023-03-19T08:21:20;100956.22;;;13.04;nan
48029;BME280;33808;37.368;127.108;2023-03-19T08:23:51;100959.84;;;12.52;nan
48029;BME280;33808;37.368;127.108;2023-03-19T08:26:21;100976.56;;;12.25;nan
48029;BME280;33808;37.368;127.108;2023-03-19T08:28:51;100954.97;;;12.18;nan
48029;BME280;33808;37.368;127.108;2023-03-19T08:31:20;100937.22;;;12.26;nan
48029;BME280;33808;37.368;127.108;2023-03-19T08:33:50;100968.75;;;12.23;nan
48029;BME280;33808;37.368;127.108;2023-03-19T08:36:20;100976.75;;;12.20;nan
48029;BME280;33808;37.368;127.108;2023-03-19T08:38:50;100980.53;;;12.36;nan
48029;BME280;33808;37.368;127.108;2023-03-19T08:41:23;100984.47;;;12.23;nan
48029;BME280;33808;37.368;127.108;2023-03-19T08:43:53;100962.34;;;12.07;nan
48029;BME280;33808;37.368;127.108;2023-03-19T08:46:22;100980.63;;;12.08;nan
48029;BME280;33808;37.368;127.108;2023-03-19T08:48:53;100965.47;;;12.18;nan
48029;BME280;33808;37.368;127.108;2023-03-19T08:51:23;100960.94;;;11.96;nan
48029;BME280;33808;37.368;127.108;2023-03-19T08:53:54;100978.91;;;12.07;nan
48029;BME280;33808;37.368;127.108;2023-03-19T08:56:23;100988.34;;;12.13;nan
48029;BME280;33808;37.368;127.108;2023-03-19T08:58:55;100974.00;;;11.98;nan
48029;BME280;33808;37.368;127.108;2023-03-19T09:01:25;100988.66;;;12.04;nan
48029;BME280;33808;37.368;127.108;2023-03-19T09:03:55;101021.91;;;12.02;nan
48029;BME280;33808;37.368;127.108;2023-03-19T09:08:53;100953.47;;;11.84;nan
48029;BME280;33808;37.368;127.108;2023-03-19T09:11:23;100969.38;;;11.51;nan
48029;BME280;33808;37.368;127.108;2023-03-19T09:13:53;100982.69;;;11.44;nan
48029;BME280;33808;37.368;127.108;2023-03-19T09:16:23;100971.88;;;11.28;nan
48029;BME280;33808;37.368;127.108;2023-03-19T09:18:54;100987.91;;;11.44;nan
48029;BME280;33808;37.368;127.108;2023-03-19T09:21:25;100995.09;;;11.38;nan
48029;BME280;33808;37.368;127.108;2023-03-19T09:23:55;100991.97;;;11.26;nan
48029;BME280;33808;37.368;127.108;2023-03-19T09:26:25;100988.69;;;11.47;nan
48029;BME280;33808;37.368;127.108;2023-03-19T09:28:55;100989.94;;;11.35;nan
48029;BME280;33808;37.368;127.108;2023-03-19T09:31:25;100987.13;;;11.41;nan
48029;BME280;33808;37.368;127.108;2023-03-19T09:33:56;100987.28;;;11.37;nan
48029;BME280;33808;37.368;127.108;2023-03-19T09:36:26;100980.56;;;11.28;nan
48029;BME280;33808;37.368;127.108;2023-03-19T09:38:55;100987.84;;;11.18;nan
48029;BME280;33808;37.368;127.108;2023-03-19T09:44:46;100990.69;;;11.11;nan
48029;BME280;33808;37.368;127.108;2023-03-19T09:47:33;100985.34;;;11.14;nan
48029;BME280;33808;37.368;127.108;2023-03-19T09:50:16;100981.34;;;11.02;nan
48029;BME280;33808;37.368;127.108;2023-03-19T09:53:26;100993.88;;;10.91;nan
48029;BME280;33808;37.368;127.108;2023-03-19T09:58:19;100999.56;;;10.75;nan
48029;BME280;33808;37.368;127.108;2023-03-19T10:00:51;100993.97;;;10.56;nan
48029;BME280;33808;37.368;127.108;2023-03-19T10:20:48;100993.75;;;9.62;nan
48029;BME280;33808;37.368;127.108;2023-03-19T10:25:56;101002.44;;;9.61;nan
48029;BME280;33808;37.368;127.108;2023-03-19T10:28:28;100971.34;;;9.52;nan
48029;BME280;33808;37.368;127.108;2023-03-19T10:34:13;100994.84;;;9.13;nan
48029;BME280;33808;37.368;127.108;2023-03-19T10:36:47;100991.84;;;8.89;nan
48029;BME280;33808;37.368;127.108;2023-03-19T10:39:18;100980.13;;;8.68;nan
48029;BME280;33808;37.368;127.108;2023-03-19T10:44:31;100988.84;;;8.66;nan
48029;BME280;33808;37.368;127.108;2023-03-19T10:47:12;100998.53;;;8.59;nan
48029;BME280;33808;37.368;127.108;2023-03-19T10:49:42;100983.41;;;8.31;nan
48029;BME280;33808;37.368;127.108;2023-03-19T10:52:31;100994.53;;;8.38;nan
48029;BME280;33808;37.368;127.108;2023-03-19T10:57:35;100957.19;;;8.41;nan
48029;BME280;33808;37.368;127.108;2023-03-19T11:00:12;100987.53;;;8.43;nan
48029;BME280;33808;37.368;127.108;2023-03-19T11:02:49;100993.69;;;8.38;nan
48029;BME280;33808;37.368;127.108;2023-03-19T11:07:58;100999.69;;;8.44;nan
48029;BME280;33808;37.368;127.108;2023-03-19T11:10:31;100989.94;;;8.56;nan
48029;BME280;33808;37.368;127.108;2023-03-19T11:13:23;101003.13;;;8.46;nan
48029;BME280;33808;37.368;127.108;2023-03-19T11:15:57;100990.59;;;8.17;nan
48029;BME280;33808;37.368;127.108;2023-03-19T11:18:30;100985.56;;;8.08;nan
48029;BME280;33808;37.368;127.108;2023-03-19T11:21:23;100983.78;;;8.10;nan
48029;BME280;33808;37.368;127.108;2023-03-19T11:23:59;100990.56;;;7.67;nan
48029;BME280;33808;37.368;127.108;2023-03-19T11:26:30;100993.09;;;7.72;nan
48029;BME280;33808;37.368;127.108;2023-03-19T11:29:04;100997.53;;;7.65;nan
48029;BME280;33808;37.368;127.108;2023-03-19T11:31:40;101020.34;;;7.48;nan
48029;BME280;33808;37.368;127.108;2023-03-19T11:39:57;100991.63;;;7.55;nan
48029;BME280;33808;37.368;127.108;2023-03-19T11:42:36;100995.09;;;7.53;nan
48029;BME280;33808;37.368;127.108;2023-03-19T11:45:34;101014.06;;;7.61;nan
48029;BME280;33808;37.368;127.108;2023-03-19T11:51:16;101001.19;;;7.53;nan
48029;BME280;33808;37.368;127.108;2023-03-19T11:56:49;100961.81;;;7.18;nan
48029;BME280;33808;37.368;127.108;2023-03-19T12:13:20;101001.00;;;7.02;nan
48029;BME280;33808;37.368;127.108;2023-03-19T12:18:58;101003.09;;;6.72;nan
48029;BME280;33808;37.368;127.108;2023-03-19T12:22:05;101007.22;;;6.90;nan
48029;BME280;33808;37.368;127.108;2023-03-19T12:27:51;100999.69;;;6.69;nan
48029;BME280;33808;37.368;127.108;2023-03-19T12:30:44;100989.09;;;6.86;nan
48029;BME280;33808;37.368;127.108;2023-03-19T12:33:35;100998.03;;;6.60;nan
48029;BME280;33808;37.368;127.108;2023-03-19T12:36:19;100995.56;;;6.49;nan
48029;BME280;33808;37.368;127.108;2023-03-19T12:38:58;100992.84;;;6.60;nan
48029;BME280;33808;37.368;127.108;2023-03-19T12:41:32;101076.56;;;6.82;nan
48029;BME280;33808;37.368;127.108;2023-03-19T12:44:09;101006.66;;;6.62;nan
48029;BME280;33808;37.368;127.108;2023-03-19T12:49:35;100981.69;;;6.53;nan
48029;BME280;33808;37.368;127.108;2023-03-19T12:52:30;100991.09;;;6.62;nan
48029;BME280;33808;37.368;127.108;2023-03-19T12:58:00;100988.91;;;6.24;nan
48029;BME280;33808;37.368;127.108;2023-03-19T13:01:02;100982.06;;;6.16;nan
48029;BME280;33808;37.368;127.108;2023-03-19T13:14:59;100987.44;;;5.92;nan
48029;BME280;33808;37.368;127.108;2023-03-19T13:23:34;100966.34;;;6.32;nan
48029;BME280;33808;37.368;127.108;2023-03-19T13:29:07;100956.78;;;6.35;nan
48029;BME280;33808;37.368;127.108;2023-03-19T13:31:37;100965.53;;;6.24;nan
48029;BME280;33808;37.368;127.108;2023-03-19T13:34:25;100970.19;;;5.88;nan
48029;BME280;33808;37.368;127.108;2023-03-19T13:47:58;100981.34;;;6.00;nan
48029;BME280;33808;37.368;127.108;2023-03-19T13:51:20;100985.75;;;5.88;nan
48029;BME280;33808;37.368;127.108;2023-03-19T13:54:04;100981.66;;;5.57;nan
48029;BME280;33808;37.368;127.108;2023-03-19T13:59:32;101058.59;;;5.51;nan
48029;BME280;33808;37.368;127.108;2023-03-19T14:05:01;100970.47;;;5.48;nan
48029;BME280;33808;37.368;127.108;2023-03-19T14:07:39;100994.69;;;5.50;nan
48029;BME280;33808;37.368;127.108;2023-03-19T14:10:23;100950.75;;;5.30;nan
48029;BME280;33808;37.368;127.108;2023-03-19T14:13:30;100961.00;;;5.45;nan
48029;BME280;33808;37.368;127.108;2023-03-19T14:18:41;100973.81;;;5.67;nan
48029;BME280;33808;37.368;127.108;2023-03-19T14:21:29;100983.34;;;5.65;nan
48029;BME280;33808;37.368;127.108;2023-03-19T14:36:05;100960.50;;;4.80;nan
48029;BME280;33808;37.368;127.108;2023-03-19T14:38:41;100951.91;;;4.78;nan
48029;BME280;33808;37.368;127.108;2023-03-19T14:41:16;100954.56;;;4.56;nan
48029;BME280;33808;37.368;127.108;2023-03-19T14:55:21;100965.66;;;4.89;nan
48029;BME280;33808;37.368;127.108;2023-03-19T14:58:01;100954.53;;;4.70;nan
48029;BME280;33808;37.368;127.108;2023-03-19T15:00:51;101081.34;;;4.78;nan
48029;BME280;33808;37.368;127.108;2023-03-19T15:03:42;100980.34;;;4.81;nan
48029;BME280;33808;37.368;127.108;2023-03-19T15:06:13;101056.34;;;4.60;nan
48029;BME280;33808;37.368;127.108;2023-03-19T15:09:20;100976.06;;;4.74;nan
48029;BME280;33808;37.368;127.108;2023-03-19T15:21:27;100968.34;;;4.60;nan
48029;BME280;33808;37.368;127.108;2023-03-19T15:33:37;101037.34;;;4.65;nan
48029;BME280;33808;37.368;127.108;2023-03-19T15:36:31;100965.72;;;4.64;nan
48029;BME280;33808;37.368;127.108;2023-03-19T15:39:08;100947.66;;;4.60;nan
48029;BME280;33808;37.368;127.108;2023-03-19T15:41:43;101049.44;;;4.59;nan
48029;BME280;33808;37.368;127.108;2023-03-19T15:44:19;101006.38;;;4.30;nan
48029;BME280;33808;37.368;127.108;2023-03-19T15:46:51;100945.19;;;4.18;nan
48029;BME280;33808;37.368;127.108;2023-03-19T15:57:05;100952.03;;;4.39;nan
48029;BME280;33808;37.368;127.108;2023-03-19T15:59:36;100966.66;;;4.51;nan
48029;BME280;33808;37.368;127.108;2023-03-19T16:02:27;100955.47;;;4.43;nan
48029;BME280;33808;37.368;127.108;2023-03-19T16:04:59;100973.56;;;4.38;nan
48029;BME280;33808;37.368;127.108;2023-03-19T16:07:53;100963.25;;;4.32;nan
48029;BME280;33808;37.368;127.108;2023-03-19T16:10:35;100965.00;;;4.30;nan
48029;BME280;33808;37.368;127.108;2023-03-19T16:13:27;100958.13;;;4.11;nan
48029;BME280;33808;37.368;127.108;2023-03-19T16:16:18;100946.06;;;4.06;nan
48029;BME280;33808;37.368;127.108;2023-03-19T16:18:53;100958.13;;;4.17;nan
48029;BME280;33808;37.368;127.108;2023-03-19T16:21:37;100956.38;;;4.13;nan
48029;BME280;33808;37.368;127.108;2023-03-19T16:26:42;100950.38;;;4.09;nan
48029;BME280;33808;37.368;127.108;2023-03-19T16:29:26;100946.03;;;4.25;nan
48029;BME280;33808;37.368;127.108;2023-03-19T16:32:01;100947.78;;;4.15;nan
48029;BME280;33808;37.368;127.108;2023-03-19T16:34:41;100938.34;;;3.83;nan
48029;BME280;33808;37.368;127.108;2023-03-19T16:37:45;100934.88;;;4.00;nan
48029;BME280;33808;37.368;127.108;2023-03-19T16:47:57;100924.50;;;4.03;nan
48029;BME280;33808;37.368;127.108;2023-03-19T16:50:38;100926.25;;;3.92;nan
48029;BME280;33808;37.368;127.108;2023-03-19T16:58:43;101005.53;;;3.65;nan
48029;BME280;33808;37.368;127.108;2023-03-19T17:01:15;100903.88;;;3.57;nan
48029;BME280;33808;37.368;127.108;2023-03-19T17:03:49;100915.94;;;3.67;nan
48029;BME280;33808;37.368;127.108;2023-03-19T17:06:23;100916.78;;;3.64;nan
48029;BME280;33808;37.368;127.108;2023-03-19T17:08:52;100903.91;;;3.60;nan
48029;BME280;33808;37.368;127.108;2023-03-19T17:13:57;100909.06;;;3.71;nan
48029;BME280;33808;37.368;127.108;2023-03-19T17:16:27;100897.88;;;3.68;nan
48029;BME280;33808;37.368;127.108;2023-03-19T17:18:57;100899.59;;;3.63;nan
48029;BME280;33808;37.368;127.108;2023-03-19T17:21:29;100897.00;;;3.53;nan
48029;BME280;33808;37.368;127.108;2023-03-19T17:24:34;100893.56;;;3.69;nan
48029;BME280;33808;37.368;127.108;2023-03-19T17:29:33;100897.00;;;3.59;nan
48029;BME280;33808;37.368;127.108;2023-03-19T17:32:03;100964.19;;;3.65;nan
48029;BME280;33808;37.368;127.108;2023-03-19T17:34:35;100881.50;;;3.59;nan
48029;BME280;33808;37.368;127.108;2023-03-19T17:37:09;100877.19;;;3.62;nan